CheckWX is a tool to help pilots better visualize weather data.  It is not intended as a substitute for an official pre-flight weather briefing.

08:06:29 UTC

KDMA TAF
Davis Monthan AFB Airport
Tucson, Arizona, USA
TAF KDMA 190605Z 1906/2012 VRB06KT 9999 FEW100 QNH3002INS BECMG 1917/1918 10009KT 9999 BKN130 QNH2993INS TEMPO 1918/1923 11010G15KT BECMG 2008/2009 VRB06KT 9999 FEW120 QNH2998INS TX26/1921Z TN09/1913Z

Mar-19@
06:00 UTC

Mar-19 @ 06:00 UTC

Mar-19@
17:00 UTC

Mar-19 @ 17:00 UTC

TAF KDMA 190605Z 1906/2012 VRB06KT 9999 FEW100 QNH3002INS
Wind
  • Variable at 6 KTS
Cloud Levels
  • Few at 10,000' AGL

Mar-19@
17:00 UTC

Mar-19 @ 17:00 UTC

Mar-20@
08:00 UTC

Mar-20 @ 08:00 UTC

BECMG 1917/1918 10009KT 9999 BKN130 QNH2993INS

Becoming

Becoming Conditions expected by Tue, Mar 19, 2019 @ 18:00 UTC

Wind
  • 100° at 9 KTS
Cloud Levels
  • Broken at 13,000' AGL

Mar-19@
18:00 UTC

Mar-19 @ 18:00 UTC

Mar-19@
23:00 UTC

Mar-19 @ 23:00 UTC

TEMPO 1918/1923 11010G15KT

Temporary

Temporary Changes expected for less than half the time period

Wind
  • 110° at 10 KTS
  • {Gusting to 15 KTS

Mar-20@
08:00 UTC

Mar-20 @ 08:00 UTC

Mar-20@
12:00 UTC

Mar-20 @ 12:00 UTC

BECMG 2008/2009 VRB06KT 9999 FEW120 QNH2998INS TX26/1921Z TN09/1913Z

Becoming

Becoming Conditions expected by Wed, Mar 20, 2019 @ 09:00 UTC

Wind
  • Variable at 6 KTS
Cloud Levels
  • Few at 12,000' AGL